createdAt,value
2023-01-04T00:00:28.494Z,5.47
2023-01-04T00:03:31.965Z,5.87
2023-01-04T00:06:33.554Z,5.87
2023-01-04T00:09:34.948Z,6.00
2023-01-04T00:12:36.795Z,6.10
2023-01-04T00:15:38.328Z,6.17
2023-01-04T00:18:41.430Z,6.50
2023-01-04T00:21:42.833Z,6.00
2023-01-04T00:24:44.215Z,6.07
2023-01-04T00:27:45.606Z,5.80
2023-01-04T00:30:47.050Z,6.03
2023-01-04T00:33:48.510Z,5.93
2023-01-04T00:36:49.931Z,5.63
2023-01-04T00:39:51.325Z,6.37
2023-01-04T00:42:52.697Z,5.70
2023-01-04T00:45:54.326Z,5.90
2023-01-04T00:49:00.109Z,5.47
2023-01-04T00:52:03.564Z,5.70
2023-01-04T00:55:05.268Z,5.20
2023-01-04T00:58:07.244Z,4.80
2023-01-04T01:01:09.339Z,5.50
2023-01-04T01:04:16.315Z,5.50
2023-01-04T01:07:17.823Z,5.27
2023-01-04T01:10:20.303Z,4.93
2023-01-04T01:13:23.134Z,5.07
2023-01-04T01:19:47.418Z,5.50
2023-01-04T01:22:48.820Z,5.53
2023-01-04T01:25:50.623Z,5.97
2023-01-04T01:28:52.731Z,5.50
2023-01-04T01:31:54.438Z,5.83
2023-01-04T01:34:55.955Z,5.90
2023-01-04T01:37:57.321Z,5.67
2023-01-04T01:40:58.785Z,5.80
2023-01-04T01:44:04.149Z,5.90
2023-01-04T01:47:05.629Z,5.50
2023-01-04T01:50:26.882Z,5.77
2023-01-04T01:53:32.030Z,5.70
2023-01-04T01:56:37.857Z,5.10
2023-01-04T01:59:42.532Z,5.10
2023-01-04T02:03:03.696Z,5.10
2023-01-04T02:06:08.490Z,4.80
2023-01-04T02:09:09.951Z,4.80
2023-01-04T02:12:12.291Z,4.93
2023-01-04T02:15:14.038Z,5.50
2023-01-04T02:18:24.428Z,4.60
2023-01-04T02:21:44.943Z,4.90
2023-01-04T02:25:05.031Z,4.63
2023-01-04T02:28:39.381Z,4.50
2023-01-04T02:31:48.164Z,4.77
2023-01-04T02:35:15.333Z,4.87
2023-01-04T02:38:31.258Z,5.20
2023-01-04T02:41:50.648Z,4.70
2023-01-04T02:45:04.343Z,4.40
2023-01-04T02:48:25.586Z,4.67
2023-01-04T02:51:34.251Z,4.53
2023-01-04T02:54:36.289Z,4.97
2023-01-04T02:57:58.247Z,4.60
2023-01-04T03:01:32.069Z,4.23
2023-01-04T03:05:33.966Z,4.63
2023-01-04T03:08:45.785Z,5.07
2023-01-04T03:12:16.532Z,4.90
2023-01-04T03:15:25.256Z,5.33
2023-01-04T03:18:29.159Z,5.40
2023-01-04T03:21:33.059Z,5.53
2023-01-04T03:24:53.181Z,5.97
2023-01-04T03:28:14.542Z,6.27
2023-01-04T03:31:53.080Z,5.70
2023-01-04T03:35:13.714Z,6.30
2023-01-04T03:39:06.735Z,6.53
2023-01-04T03:42:46.099Z,7.73
2023-01-04T03:46:14.681Z,8.10
2023-01-04T03:49:26.391Z,8.07
2023-01-04T03:52:30.907Z,8.43
2023-01-04T03:55:35.121Z,8.70
2023-01-04T03:58:37.485Z,8.87
2023-01-04T04:01:41.551Z,8.83
2023-01-04T04:05:02.127Z,9.23
2023-01-04T04:08:22.950Z,9.20
2023-01-04T04:11:30.214Z,8.50
2023-01-04T04:14:31.622Z,9.53
2023-01-04T04:17:33.022Z,9.93
2023-01-04T04:20:34.922Z,9.53
2023-01-04T04:23:36.310Z,9.07
2023-01-04T04:26:37.699Z,10.00
2023-01-04T04:29:39.108Z,9.23
2023-01-04T04:32:40.539Z,9.60
2023-01-04T04:35:41.927Z,9.30
2023-01-04T04:38:43.371Z,10.23
2023-01-04T04:41:44.763Z,10.50
2023-01-04T04:44:46.166Z,9.93
2023-01-04T04:47:47.572Z,9.87
2023-01-04T04:50:48.985Z,9.90
2023-01-04T04:53:50.451Z,10.40
2023-01-04T04:56:51.845Z,10.73
2023-01-04T04:59:53.259Z,10.97
2023-01-04T05:02:57.949Z,10.07
2023-01-04T05:05:59.733Z,10.17
2023-01-04T05:09:01.209Z,9.93
2023-01-04T05:12:21.065Z,9.87
2023-01-04T05:15:22.578Z,9.60
2023-01-04T05:18:24.024Z,10.63
2023-01-04T05:21:25.403Z,10.50
2023-01-04T05:24:26.791Z,10.07
2023-01-04T05:27:28.246Z,10.13
2023-01-04T05:30:48.234Z,10.77
2023-01-04T05:33:49.646Z,9.77
2023-01-04T05:36:51.047Z,11.03
2023-01-04T05:39:52.427Z,10.30
2023-01-04T05:42:53.851Z,10.30
2023-01-04T05:45:56.689Z,10.53
2023-01-04T05:48:58.394Z,10.50
2023-01-04T05:51:59.768Z,10.10
2023-01-04T05:55:01.400Z,10.23
2023-01-04T05:58:03.277Z,9.67
2023-01-04T06:01:07.580Z,10.53
2023-01-04T06:04:09.096Z,10.23
2023-01-04T06:07:10.691Z,10.13
2023-01-04T06:10:14.491Z,9.63
2023-01-04T06:13:15.858Z,11.50
2023-01-04T06:16:17.286Z,10.83
2023-01-04T06:19:18.749Z,10.53
2023-01-04T06:22:20.762Z,9.57
2023-01-04T06:25:22.294Z,9.57
2023-01-04T06:28:23.670Z,9.17
2023-01-04T06:31:25.095Z,9.00
2023-01-04T06:34:30.906Z,8.53
2023-01-04T06:37:32.969Z,8.40
2023-01-04T06:40:34.349Z,7.87
2023-01-04T06:43:35.727Z,7.20
2023-01-04T06:46:37.169Z,7.20
2023-01-04T06:49:38.635Z,7.53
2023-01-04T06:52:40.992Z,7.30
2023-01-04T06:55:44.198Z,6.17
2023-01-04T06:58:45.645Z,6.30
2023-01-04T07:01:47.139Z,6.77
2023-01-04T07:04:48.761Z,6.60
2023-01-04T07:07:50.198Z,6.17
2023-01-04T07:10:52.034Z,5.50
2023-01-04T07:13:53.508Z,5.87
2023-01-04T07:16:54.927Z,5.80
2023-01-04T07:19:56.324Z,6.27
2023-01-04T07:22:57.734Z,5.50
2023-01-04T07:26:02.867Z,5.27
2023-01-04T07:29:14.520Z,5.90
2023-01-04T07:32:16.416Z,5.90
2023-01-04T07:35:17.929Z,5.87
2023-01-04T07:38:19.330Z,7.13
2023-01-04T07:41:20.727Z,7.07
2023-01-04T07:44:22.130Z,6.83
2023-01-04T07:47:23.520Z,6.30
2023-01-04T07:50:24.898Z,5.93
2023-01-04T07:53:26.366Z,5.30
2023-01-04T07:56:27.884Z,5.60
2023-01-04T07:59:29.374Z,6.00
2023-01-04T08:02:30.901Z,6.20
2023-01-04T08:05:33.882Z,5.73
2023-01-04T08:08:35.569Z,6.60
2023-01-04T08:11:37.054Z,6.27
2023-01-04T08:14:38.479Z,5.87
2023-01-04T08:17:39.876Z,5.50
2023-01-04T08:20:41.259Z,4.10
2023-01-04T08:23:42.728Z,4.03
2023-01-04T08:26:45.126Z,3.10
2023-01-04T08:29:46.623Z,3.00
2023-01-04T08:32:48.762Z,3.57
2023-01-04T08:35:50.218Z,3.20
2023-01-04T08:39:02.442Z,2.80
2023-01-04T08:42:18.690Z,1.93
2023-01-04T08:45:22.075Z,2.33
2023-01-04T08:48:24.906Z,1.87
2023-01-04T08:51:26.682Z,1.20
2023-01-04T08:54:28.095Z,1.13
2023-01-04T08:57:29.537Z,1.10
2023-01-04T09:00:31.042Z,1.10
2023-01-04T09:03:32.978Z,0.90
2023-01-04T09:06:35.261Z,1.13
2023-01-04T09:09:36.729Z,0.90
2023-01-04T09:12:38.612Z,0.87
2023-01-04T09:15:40.168Z,0.90
2023-01-04T09:18:41.821Z,0.87
2023-01-04T09:21:43.268Z,0.70
2023-01-04T09:24:44.788Z,1.10
2023-01-04T09:27:46.191Z,1.00
2023-01-04T09:30:47.615Z,0.90
2023-01-04T09:34:14.020Z,1.20
2023-01-04T09:37:10.427Z,0.93
2023-01-04T09:40:22.216Z,0.77
2023-01-04T09:43:23.923Z,1.00
2023-01-04T09:46:32.457Z,1.03
2023-01-04T09:49:52.805Z,1.20
2023-01-04T09:53:18.283Z,0.93
2023-01-04T09:56:28.735Z,1.17
2023-01-04T09:59:32.581Z,0.73
2023-01-04T10:02:42.191Z,1.30
2023-01-04T10:05:43.850Z,0.60
2023-01-04T10:08:45.447Z,0.90
2023-01-04T10:12:29.313Z,0.80
2023-01-04T10:15:40.449Z,1.10
2023-01-04T10:19:51.055Z,0.90
2023-01-04T10:22:37.779Z,1.13
2023-01-04T10:25:43.398Z,0.60
2023-01-04T10:29:19.092Z,0.90
2023-01-04T10:32:37.438Z,0.83
2023-01-04T10:35:40.964Z,0.83
2023-01-04T10:38:43.043Z,0.80
2023-01-04T10:42:10.528Z,0.90
2023-01-04T10:45:22.323Z,0.90
2023-01-04T10:48:42.903Z,0.80
2023-01-04T10:52:10.861Z,0.80
2023-01-04T10:55:25.067Z,0.77
2023-01-04T10:58:33.576Z,0.83
2023-01-04T11:01:42.004Z,0.83
2023-01-04T11:04:52.431Z,1.00
2023-01-04T11:08:03.018Z,0.83
2023-01-04T11:11:11.144Z,0.70
2023-01-04T11:14:14.207Z,1.10
2023-01-04T11:17:15.896Z,1.03
2023-01-04T11:20:17.533Z,1.20
2023-01-04T11:23:20.569Z,1.10
2023-01-04T11:26:29.194Z,1.10
2023-01-04T11:29:35.125Z,0.80
2023-01-04T11:33:00.731Z,1.17
2023-01-04T11:36:03.225Z,1.30
2023-01-04T11:39:07.314Z,1.00
2023-01-04T11:42:20.061Z,1.00
2023-01-04T11:45:24.990Z,1.00
2023-01-04T11:48:46.467Z,1.03
2023-01-04T11:51:47.859Z,1.10
2023-01-04T11:54:49.309Z,1.10
2023-01-04T11:58:14.729Z,0.90
2023-01-04T12:01:22.928Z,1.00
2023-01-04T12:04:27.418Z,0.90
2023-01-04T12:07:33.880Z,1.10
2023-01-04T12:10:35.344Z,1.07
2023-01-04T12:13:37.753Z,1.00
2023-01-04T12:17:01.667Z,1.00
2023-01-04T12:20:16.506Z,1.20
2023-01-04T12:23:20.500Z,1.10
2023-01-04T12:26:23.439Z,1.30
2023-01-04T12:29:24.800Z,1.50
2023-01-04T12:32:26.201Z,1.30
2023-01-04T12:35:58.604Z,1.10
2023-01-04T12:39:12.034Z,1.40
2023-01-04T12:42:18.611Z,0.90
2023-01-04T12:45:21.994Z,1.10
2023-01-04T12:48:52.107Z,1.10
2023-01-04T12:55:33.049Z,1.10
2023-01-04T12:59:06.989Z,1.20
2023-01-04T13:02:19.337Z,1.03
2023-01-04T13:05:55.634Z,1.00
2023-01-04T13:08:44.230Z,1.17
2023-01-04T13:12:04.512Z,1.23
2023-01-04T13:15:43.523Z,1.00
2023-01-04T13:18:56.982Z,1.00
2023-01-04T13:21:59.268Z,1.00
2023-01-04T13:25:02.896Z,0.90
2023-01-04T13:28:05.188Z,0.90
2023-01-04T13:31:06.659Z,1.20
2023-01-04T13:34:17.961Z,0.90
2023-01-04T13:37:26.985Z,0.97
2023-01-04T13:40:37.980Z,1.10
2023-01-04T13:44:02.327Z,1.00
2023-01-04T13:47:03.885Z,1.20
2023-01-04T13:50:13.823Z,0.90
2023-01-04T13:53:33.554Z,1.23
2023-01-04T13:56:35.440Z,0.90
2023-01-04T13:59:37.362Z,1.57
2023-01-04T14:02:38.990Z,1.07
2023-01-04T14:05:47.973Z,1.40
2023-01-04T14:08:53.688Z,1.20
2023-01-04T14:12:08.346Z,1.20
2023-01-04T14:15:29.264Z,1.10
2023-01-04T14:18:31.390Z,1.20
2023-01-04T14:21:36.233Z,0.90
2023-01-04T14:28:30.537Z,1.00
2023-01-04T14:31:34.863Z,1.07
2023-01-04T14:34:36.286Z,1.10
2023-01-04T14:37:37.704Z,0.97
2023-01-04T14:40:39.344Z,1.03
2023-01-04T14:43:54.648Z,1.10
2023-01-04T14:46:59.110Z,1.20
2023-01-04T14:50:00.577Z,1.10
2023-01-04T14:53:02.320Z,1.00
2023-01-04T14:56:04.014Z,1.00
2023-01-04T14:59:05.556Z,1.20
2023-01-04T15:02:10.121Z,1.20
2023-01-04T15:05:11.816Z,1.00
2023-01-04T15:08:13.368Z,0.90
2023-01-04T15:11:15.725Z,0.90
2023-01-04T15:14:18.715Z,1.07
2023-01-04T15:17:20.118Z,0.87
2023-01-04T15:20:22.102Z,1.00
2023-01-04T15:23:23.559Z,0.90
2023-01-04T15:26:25.124Z,0.90
2023-01-04T15:29:26.624Z,0.87
2023-01-04T15:32:28.093Z,0.70
2023-01-04T15:35:29.507Z,1.20
2023-01-04T15:38:30.924Z,1.00
2023-01-04T15:41:51.502Z,1.07
2023-01-04T15:44:52.878Z,0.80
2023-01-04T15:47:57.463Z,0.80
2023-01-04T15:51:07.522Z,0.90
2023-01-04T15:54:09.040Z,0.80
2023-01-04T15:57:10.440Z,1.10
2023-01-04T16:00:12.384Z,1.10
2023-01-04T16:03:13.742Z,0.80
2023-01-04T16:06:16.783Z,0.83
2023-01-04T16:09:18.189Z,0.80
2023-01-04T16:12:38.292Z,1.00
2023-01-04T16:15:39.751Z,0.83
2023-01-04T16:18:48.934Z,0.80
2023-01-04T16:21:50.380Z,0.87
2023-01-04T16:28:13.349Z,1.10
2023-01-04T16:31:14.760Z,1.30
2023-01-04T16:34:16.515Z,1.20
2023-01-04T16:37:18.687Z,1.20
2023-01-04T16:40:20.990Z,1.27
2023-01-04T16:43:22.388Z,1.00
2023-01-04T16:46:25.995Z,1.57
2023-01-04T16:49:27.411Z,1.07
2023-01-04T16:52:29.980Z,1.10
2023-01-04T16:55:31.494Z,1.33
2023-01-04T16:58:33.075Z,1.00
2023-01-04T17:01:40.415Z,1.00
2023-01-04T17:04:52.788Z,1.10
2023-01-04T17:07:54.266Z,1.10
2023-01-04T17:11:01.535Z,1.40
2023-01-04T17:14:13.485Z,0.90
2023-01-04T17:17:14.948Z,1.10
2023-01-04T17:20:16.467Z,1.23
2023-01-04T17:23:19.567Z,1.00
2023-01-04T17:26:24.819Z,0.90
2023-01-04T17:29:26.294Z,1.00
2023-01-04T17:32:27.807Z,1.20
2023-01-04T17:35:29.209Z,0.73
2023-01-04T17:38:31.080Z,0.87
2023-01-04T17:41:32.501Z,1.10
2023-01-04T17:44:33.892Z,1.10
2023-01-04T17:47:35.314Z,1.07
2023-01-04T17:50:36.833Z,1.20
2023-01-04T17:53:39.208Z,1.27
2023-01-04T17:56:40.720Z,1.37
2023-01-04T17:59:42.094Z,1.13
2023-01-04T18:02:44.107Z,1.10
2023-01-04T18:06:07.220Z,1.27
2023-01-04T18:09:18.525Z,1.10
2023-01-04T18:12:23.545Z,1.27
2023-01-04T18:15:24.951Z,1.20
2023-01-04T18:18:26.401Z,1.00
2023-01-04T18:21:30.824Z,0.90
2023-01-04T18:24:36.693Z,1.00
2023-01-04T18:27:39.073Z,0.77
2023-01-04T18:30:40.502Z,1.03
2023-01-04T18:33:43.700Z,0.87
2023-01-04T18:36:45.780Z,1.00
2023-01-04T18:39:48.278Z,0.80
2023-01-04T18:42:50.537Z,1.03
2023-01-04T18:45:52.046Z,0.97
2023-01-04T18:48:58.815Z,1.13
2023-01-04T18:52:00.251Z,0.90
2023-01-04T18:55:01.701Z,1.20
2023-01-04T18:58:03.097Z,1.17
2023-01-04T19:01:08.741Z,1.00
2023-01-04T19:04:11.321Z,1.07
2023-01-04T19:07:12.783Z,1.20
2023-01-04T19:10:14.224Z,1.17
2023-01-04T19:13:15.606Z,0.93
2023-01-04T19:16:17.046Z,1.33
2023-01-04T19:19:18.699Z,1.30
2023-01-04T19:22:20.089Z,1.10
2023-01-04T19:25:27.895Z,1.10
2023-01-04T19:28:29.717Z,1.30
2023-01-04T19:31:31.217Z,1.10
2023-01-04T19:34:32.674Z,1.10
2023-01-04T19:37:34.152Z,1.60
2023-01-04T19:40:35.995Z,1.30
2023-01-04T19:43:37.436Z,1.00
2023-01-04T19:46:39.559Z,1.30
2023-01-04T19:49:41.035Z,1.10
2023-01-04T19:52:42.437Z,1.13
2023-01-04T19:55:43.879Z,1.20
2023-01-04T19:58:45.724Z,1.20
2023-01-04T20:01:47.301Z,1.20
2023-01-04T20:04:48.819Z,1.13
2023-01-04T20:07:51.114Z,1.30
2023-01-04T20:10:54.237Z,1.33
2023-01-04T20:13:55.625Z,1.13
2023-01-04T20:16:57.036Z,1.27
2023-01-04T20:19:58.446Z,1.30
2023-01-04T20:22:59.867Z,1.30
2023-01-04T20:26:11.379Z,1.27
2023-01-04T20:29:13.135Z,1.40
2023-01-04T20:32:14.567Z,1.00
2023-01-04T20:35:15.982Z,1.00
2023-01-04T20:38:17.351Z,1.20
2023-01-04T20:41:22.813Z,1.17
2023-01-04T20:44:24.199Z,1.10
2023-01-04T20:47:25.632Z,0.90
2023-01-04T20:50:27.013Z,1.03
2023-01-04T20:53:30.021Z,1.03
2023-01-04T20:56:37.327Z,0.90
2023-01-04T20:59:38.727Z,0.80
2023-01-04T21:02:40.335Z,1.00
2023-01-04T21:05:44.304Z,1.10
2023-01-04T21:08:46.445Z,1.03
2023-01-04T21:11:47.932Z,1.20
2023-01-04T21:14:49.364Z,1.10
2023-01-04T21:17:50.797Z,1.20
2023-01-04T21:20:52.785Z,1.20
2023-01-04T21:23:57.978Z,1.00
2023-01-04T21:27:00.519Z,1.10
2023-01-04T21:30:02.140Z,1.30
2023-01-04T21:33:03.744Z,1.00
2023-01-04T21:36:10.995Z,1.23
2023-01-04T21:39:12.697Z,1.00
2023-01-04T21:42:14.085Z,0.90
2023-01-04T21:45:15.617Z,1.10
2023-01-04T21:48:17.120Z,0.77
2023-01-04T21:51:18.623Z,0.80
2023-01-04T21:54:20.053Z,0.83
2023-01-04T21:57:21.456Z,1.00
2023-01-04T22:00:22.854Z,0.90
2023-01-04T22:03:24.805Z,0.97
2023-01-04T22:06:26.291Z,0.97
2023-01-04T22:09:27.712Z,0.80
2023-01-04T22:12:29.136Z,0.93
2023-01-04T22:15:30.827Z,0.90
2023-01-04T22:18:32.340Z,0.70
2023-01-04T22:21:33.748Z,0.80
2023-01-04T22:24:38.004Z,1.00
2023-01-04T22:27:39.883Z,1.10
2023-01-04T22:30:41.930Z,1.00
2023-01-04T22:33:43.651Z,1.10
2023-01-04T22:36:45.172Z,1.00
2023-01-04T22:39:46.585Z,1.10
2023-01-04T22:42:48.147Z,1.00
2023-01-04T22:45:49.580Z,0.90
2023-01-04T22:48:51.173Z,0.90
2023-01-04T22:51:55.340Z,0.90
2023-01-04T22:54:56.790Z,0.70
2023-01-04T22:57:58.191Z,0.80
2023-01-04T23:00:59.556Z,0.70
2023-01-04T23:04:02.285Z,0.70
2023-01-04T23:07:03.747Z,0.90
2023-01-04T23:10:06.175Z,0.80
2023-01-04T23:13:07.630Z,0.70
2023-01-04T23:16:15.028Z,0.90
2023-01-04T23:19:16.612Z,0.83
2023-01-04T23:22:18.050Z,0.70
2023-01-04T23:25:19.453Z,0.80
2023-01-04T23:28:20.898Z,0.80
2023-01-04T23:31:25.106Z,0.90
2023-01-04T23:34:26.662Z,0.80
2023-01-04T23:37:28.032Z,0.87
2023-01-04T23:40:29.434Z,1.03
2023-01-04T23:43:30.859Z,0.70
2023-01-04T23:46:32.249Z,0.70
2023-01-04T23:49:37.930Z,0.80
2023-01-04T23:52:39.426Z,0.70
2023-01-04T23:55:40.812Z,1.13
2023-01-04T23:58:42.327Z,0.83
